Time;durP1;ratioP1;P1;durP2;ratioP2;P2;SDS_P1;SDS_P2;PMS_P1;PMS_P2;Temp;Humidity;BMP_temperature;BMP_pressure;BME280_temperature;BME280_humidity;BME280_pressure;Samples;Min_cycle;Max_cycle;Signal;HPM_P1;HPM_P2
2021/07/29 00:01:19;;;;;;;4.47;2.40;;;17.40;98.50;;;;;;5011601;28;20494;-67
2021/07/29 00:03:49;;;;;;;5.43;1.83;;;17.40;98.50;;;;;;5010754;28;20439;-67
2021/07/29 00:06:20;;;;;;;3.10;2.23;;;17.40;98.50;;;;;;5011426;28;20439;-67
2021/07/29 00:08:48;;;;;;;3.73;2.70;;;17.30;98.40;;;;;;5011234;28;20475;-67
2021/07/29 00:11:19;;;;;;;3.10;2.07;;;17.40;98.50;;;;;;5011147;28;20442;-67
2021/07/29 00:14:06;;;;;;;3.03;2.03;;;17.30;98.40;;;;;;5010777;28;20432;-68
2021/07/29 00:16:50;;;;;;;4.40;2.37;;;17.20;98.70;;;;;;5011266;28;20435;-67
2021/07/29 00:19:21;;;;;;;3.77;2.43;;;17.20;98.70;;;;;;5010928;28;21000;-67
2021/07/29 00:21:51;;;;;;;4.47;2.80;;;17.20;98.60;;;;;;5010964;28;20525;-67
2021/07/29 00:24:26;;;;;;;4.20;2.90;;;17.20;98.70;;;;;;5010703;28;20435;-67
2021/07/29 00:26:54;;;;;;;4.43;2.30;;;17.20;98.70;;;;;;5010711;28;20477;-67
2021/07/29 00:29:24;;;;;;;8.07;2.83;;;17.20;98.70;;;;;;5010227;28;20467;-69
2021/07/29 00:31:52;;;;;;;3.53;2.63;;;17.20;98.60;;;;;;5010812;28;20922;-67
2021/07/29 00:34:22;;;;;;;2.97;2.27;;;17.10;98.60;;;;;;5010587;28;20447;-67
2021/07/29 00:37:07;;;;;;;3.70;2.30;;;17.10;98.80;;;;;;5010966;28;20438;-67
2021/07/29 00:39:38;;;;;;;4.27;2.63;;;17.10;98.70;;;;;;5010230;28;20444;-67
2021/07/29 00:42:07;;;;;;;4.00;2.70;;;17.10;98.60;;;;;;5010780;28;20565;-67
2021/07/29 00:44:37;;;;;;;5.00;2.97;;;17.00;98.60;;;;;;5010506;28;20469;-67
2021/07/29 00:47:07;;;;;;;4.33;2.73;;;17.00;98.60;;;;;;5010742;28;20474;-67
2021/07/29 00:49:35;;;;;;;6.97;3.03;;;17.00;98.60;;;;;;5009776;28;20526;-67
2021/07/29 00:52:04;;;;;;;4.40;3.10;;;17.00;98.50;;;;;;5010607;28;20832;-67
2021/07/29 00:54:37;;;;;;;4.57;3.50;;;17.00;98.60;;;;;;5010251;28;20447;-67
2021/07/29 00:57:06;;;;;;;5.30;3.10;;;16.90;98.80;;;;;;5010303;28;20451;-67
2021/07/29 00:59:38;;;;;;;8.83;4.13;;;16.90;98.70;;;;;;5010175;28;20447;-68
2021/07/29 01:02:07;;;;;;;7.20;3.80;;;17.00;98.80;;;;;;5010342;28;20944;-67
2021/07/29 01:04:40;;;;;;;8.13;3.63;;;17.00;98.80;;;;;;5009741;28;20446;-67
2021/07/29 01:07:11;;;;;;;4.23;3.80;;;16.90;98.70;;;;;;5010406;28;20466;-67
2021/07/29 01:09:44;;;;;;;5.40;3.40;;;16.90;98.50;;;;;;5009173;28;20483;-67
2021/07/29 01:12:13;;;;;;;5.40;3.37;;;16.90;98.50;;;;;;5010450;28;20435;-68
2021/07/29 01:14:40;;;;;;;5.20;3.47;;;16.80;98.80;;;;;;5009622;28;20442;-67
2021/07/29 01:17:11;;;;;;;4.30;3.00;;;16.80;98.80;;;;;;5010192;28;20450;-67
2021/07/29 01:19:39;;;;;;;3.70;2.80;;;16.80;98.90;;;;;;5009725;28;20470;-67
2021/07/29 01:22:12;;;;;;;5.17;2.40;;;16.80;98.80;;;;;;5010163;28;20482;-67
2021/07/29 01:24:41;;;;;;;3.30;2.27;;;16.80;98.60;;;;;;5009342;28;20443;-67
2021/07/29 01:27:09;;;;;;;3.20;2.10;;;16.80;98.60;;;;;;5010094;28;20486;-66
2021/07/29 01:29:40;;;;;;;5.30;2.83;;;16.70;98.60;;;;;;5009229;28;20481;-67
2021/07/29 01:32:13;;;;;;;5.03;2.60;;;16.70;98.80;;;;;;5009797;28;20443;-67
2021/07/29 01:34:41;;;;;;;6.13;2.27;;;16.70;98.80;;;;;;5009681;28;20443;-67
2021/07/29 01:37:14;;;;;;;3.30;2.27;;;16.60;98.80;;;;;;5010006;28;20525;-67
2021/07/29 01:39:45;;;;;;;3.17;2.03;;;16.60;99.00;;;;;;5008889;28;20439;-67
2021/07/29 01:42:12;;;;;;;3.47;2.27;;;16.60;98.90;;;;;;5009921;28;20522;-67
2021/07/29 01:44:45;;;;;;;4.00;2.30;;;16.60;98.80;;;;;;5009675;28;20470;-66
2021/07/29 01:47:16;;;;;;;4.57;2.17;;;16.60;98.70;;;;;;5009450;28;20442;-66
2021/07/29 01:49:57;;;;;;;4.20;2.37;;;16.60;98.80;;;;;;5009524;28;20834;-67
2021/07/29 01:52:25;;;;;;;3.40;2.50;;;16.60;98.80;;;;;;5009332;28;20483;-67
2021/07/29 01:54:54;;;;;;;4.77;2.47;;;16.60;98.90;;;;;;5009708;28;20466;-67
2021/07/29 01:57:24;;;;;;;9.30;3.30;;;16.60;98.80;;;;;;5009634;28;20778;-67
2021/07/29 01:59:53;;;;;;;6.27;3.90;;;16.60;98.90;;;;;;5009787;28;20491;-67
2021/07/29 02:02:21;;;;;;;4.80;3.20;;;16.60;98.70;;;;;;5008967;28;20478;-67
2021/07/29 02:04:49;;;;;;;6.17;3.40;;;16.50;98.90;;;;;;5009395;28;20439;-68
2021/07/29 02:07:17;;;;;;;4.17;2.57;;;16.40;98.70;;;;;;5009722;28;20537;-67
2021/07/29 02:09:46;;;;;;;8.90;3.00;;;16.40;98.70;;;;;;5009771;28;20434;-67
2021/07/29 02:12:13;;;;;;;4.87;2.90;;;16.30;98.80;;;;;;5009129;28;20495;-67
2021/07/29 02:14:41;;;;;;;3.73;1.80;;;16.20;99.10;;;;;;5009615;28;20439;-66
2021/07/29 02:17:13;;;;;;;5.07;2.40;;;16.10;99.30;;;;;;5009427;28;20481;-67
2021/07/29 02:19:45;;;;;;;4.83;3.20;;;16.10;99.30;;;;;;5009402;28;20438;-67
2021/07/29 02:22:17;;;;;;;5.47;4.23;;;16.00;99.30;;;;;;5008553;28;20553;-67
2021/07/29 02:24:45;;;;;;;4.30;3.03;;;16.00;99.80;;;;;;5009443;28;20833;-67
2021/07/29 02:27:18;;;;;;;3.80;2.57;;;16.00;99.60;;;;;;5009281;28;20491;-67
2021/07/29 02:29:51;;;;;;;10.47;2.93;;;16.00;99.90;;;;;;5009302;28;20476;-68
2021/07/29 02:32:22;;;;;;;4.70;3.30;;;16.10;99.70;;;;;;5008798;28;20454;-66
2021/07/29 02:34:50;;;;;;;3.60;2.70;;;16.10;99.70;;;;;;5009374;28;20777;-67
2021/07/29 02:37:18;;;;;;;5.60;3.03;;;16.20;99.70;;;;;;5009117;28;20443;-67
2021/07/29 02:39:47;;;;;;;6.63;2.67;;;16.20;99.80;;;;;;5009191;28;20439;-66
2021/07/29 02:42:20;;;;;;;8.87;3.20;;;16.20;99.60;;;;;;5008672;28;20971;-66
2021/07/29 02:44:51;;;;;;;6.57;3.87;;;16.10;99.50;;;;;;5009128;28;20483;-67
2021/07/29 02:47:24;;;;;;;13.40;4.50;;;16.10;99.60;;;;;;5008978;28;20435;-68
2021/07/29 02:49:51;;;;;;;6.40;3.77;;;16.20;99.70;;;;;;5009541;28;20435;-67
2021/07/29 02:52:18;;;;;;;5.43;3.00;;;16.20;99.60;;;;;;5011827;28;20474;-67
2021/07/29 02:54:48;;;;;;;5.70;3.40;;;16.20;99.40;;;;;;5012092;28;20443;-67
2021/07/29 02:57:20;;;;;;;4.13;2.90;;;16.20;99.40;;;;;;5011983;28;20447;-67
2021/07/29 02:59:52;;;;;;;5.30;3.57;;;16.20;99.30;;;;;;5012116;28;20438;-67
2021/07/29 03:02:22;;;;;;;3.87;2.73;;;16.20;99.40;;;;;;5012060;28;20607;-67
2021/07/29 03:04:54;;;;;;;4.43;2.90;;;16.20;99.30;;;;;;5011816;28;20899;-66
2021/07/29 03:07:34;;;;;;;3.77;3.20;;;16.20;99.40;;;;;;5012432;28;20450;-67
2021/07/29 03:10:07;;;;;;;4.90;2.97;;;16.30;99.50;;;;;;5011805;28;20499;-67
2021/07/29 03:12:37;;;;;;;7.60;3.10;;;16.40;99.50;;;;;;5012112;28;20466;-67
2021/07/29 03:15:18;;;;;;;4.40;2.63;;;16.40;99.40;;;;;;5011241;28;20526;-67
2021/07/29 03:17:45;;;;;;;3.50;2.37;;;16.40;99.10;;;;;;5011181;28;20525;-67
2021/07/29 03:20:16;;;;;;;3.43;2.70;;;16.40;98.80;;;;;;5011743;28;20439;-67
2021/07/29 03:22:47;;;;;;;3.20;2.17;;;16.40;98.80;;;;;;5011572;28;20527;-66
2021/07/29 03:25:19;;;;;;;4.00;2.80;;;16.40;98.60;;;;;;5011719;28;20925;-67
2021/07/29 03:27:47;;;;;;;7.50;3.30;;;16.40;98.40;;;;;;5011073;28;20438;-67
2021/07/29 03:30:19;;;;;;;6.20;4.37;;;16.40;98.30;;;;;;5011728;28;20431;-67
2021/07/29 03:32:51;;;;;;;6.33;3.93;;;16.30;98.40;;;;;;5011592;28;20492;-67
2021/07/29 03:35:19;;;;;;;10.97;6.97;;;16.30;98.50;;;;;;5011767;28;20830;-67
2021/07/29 03:37:47;;;;;;;8.60;5.47;;;16.20;98.50;;;;;;5011157;28;20991;-68
2021/07/29 03:40:17;;;;;;;6.73;4.43;;;16.20;98.70;;;;;;5011561;28;20912;-67
2021/07/29 03:42:46;;;;;;;6.50;4.20;;;16.20;98.80;;;;;;5011258;28;20521;-67
2021/07/29 03:45:16;;;;;;;5.20;4.30;;;16.20;98.70;;;;;;5011501;28;20967;-67
2021/07/29 03:47:46;;;;;;;3.00;2.60;;;16.20;98.90;;;;;;5011428;28;20471;-68
2021/07/29 03:50:21;;;;;;;4.07;3.30;;;16.20;98.70;;;;;;5011549;28;20443;-67
2021/07/29 03:52:48;;;;;;;4.73;3.33;;;16.20;99.00;;;;;;5011231;28;20495;-67
2021/07/29 03:55:21;;;;;;;3.60;2.80;;;16.10;98.80;;;;;;5011493;28;20503;-67
2021/07/29 03:57:53;;;;;;;3.40;2.60;;;16.10;98.80;;;;;;5011394;28;20439;-67
2021/07/29 04:00:28;;;;;;;3.00;2.07;;;16.00;99.10;;;;;;5011730;28;20850;-68
2021/07/29 04:02:59;;;;;;;4.67;2.93;;;16.00;99.10;;;;;;5010608;28;20852;-67
2021/07/29 04:05:31;;;;;;;7.13;2.77;;;16.00;99.20;;;;;;5011158;28;20427;-67
2021/07/29 04:08:05;;;;;;;4.70;2.80;;;16.10;99.30;;;;;;5011266;28;20439;-67
2021/07/29 04:10:37;;;;;;;3.90;2.87;;;16.10;99.40;;;;;;5011633;28;20533;-68
2021/07/29 04:13:10;;;;;;;3.67;2.47;;;16.10;99.40;;;;;;5011136;28;20451;-68
2021/07/29 04:15:40;;;;;;;6.90;3.10;;;16.20;99.40;;;;;;5011246;28;20473;-66
2021/07/29 04:18:12;;;;;;;5.63;3.20;;;16.20;99.20;;;;;;5011621;28;20439;-67
2021/07/29 04:20:46;;;;;;;4.43;2.70;;;16.10;99.10;;;;;;5011318;28;20470;-67
2021/07/29 04:23:19;;;;;;;4.83;3.00;;;16.10;98.80;;;;;;5011405;28;20491;-67
2021/07/29 04:25:54;;;;;;;3.43;2.67;;;16.10;98.90;;;;;;5011151;28;20457;-67
2021/07/29 04:28:33;;;;;;;12.73;2.70;;;16.10;99.00;;;;;;5010621;28;20461;-66
2021/07/29 04:31:02;;;;;;;5.00;3.50;;;16.10;99.00;;;;;;5010831;28;20439;-66
2021/07/29 04:33:29;;;;;;;3.80;2.87;;;16.10;99.10;;;;;;5011248;28;20838;-67
2021/07/29 04:36:01;;;;;;;4.07;2.90;;;16.00;99.20;;;;;;5010619;28;20439;-67
2021/07/29 04:38:28;;;;;;;4.30;2.83;;;16.00;99.20;;;;;;5010699;28;20475;-67
2021/07/29 04:41:03;;;;;;;4.27;2.77;;;16.10;99.40;;;;;;5010763;28;20451;-67
2021/07/29 04:43:35;;;;;;;6.07;3.80;;;16.10;99.40;;;;;;5011038;28;20485;-67
2021/07/29 04:46:07;;;;;;;4.80;2.97;;;16.20;99.30;;;;;;5010666;28;20458;-67
2021/07/29 04:48:39;;;;;;;19.03;3.20;;;16.10;99.50;;;;;;5010941;28;20450;-67
2021/07/29 04:51:11;;;;;;;5.03;2.90;;;16.20;99.30;;;;;;5010537;28;20447;-67
2021/07/29 04:53:40;;;;;;;5.40;3.50;;;16.20;99.50;;;;;;5011001;28;20454;-67
2021/07/29 04:56:09;;;;;;;5.30;3.50;;;16.20;99.70;;;;;;5014932;28;20500;-67
2021/07/29 04:58:38;;;;;;;4.60;3.47;;;16.20;99.50;;;;;;5086092;28;20443;-68
2021/07/29 05:01:09;;;;;;;6.50;3.57;;;16.20;99.50;;;;;;5039783;28;20496;-68
2021/07/29 05:03:37;;;;;;;5.17;3.10;;;16.20;99.80;;;;;;4990618;28;20486;-67
2021/07/29 05:06:06;;;;;;;3.60;2.63;;;16.30;99.90;;;;;;4990086;28;20450;-66
2021/07/29 05:08:36;;;;;;;6.33;3.50;;;16.40;99.90;;;;;;5006124;28;20519;-68
2021/07/29 05:11:04;;;;;;;4.43;2.97;;;16.50;99.70;;;;;;5057654;28;20439;-69
2021/07/29 05:13:38;;;;;;;4.60;3.63;;;16.60;99.70;;;;;;4991482;28;20464;-67
2021/07/29 05:16:11;;;;;;;5.97;4.07;;;16.60;99.90;;;;;;4988267;28;20491;-71
2021/07/29 05:18:43;;;;;;;6.93;4.67;;;16.70;99.60;;;;;;4992433;28;20438;-69
2021/07/29 05:21:19;;;;;;;8.60;6.20;;;16.80;99.20;;;;;;4991972;28;20469;-68
2021/07/29 05:23:47;;;;;;;5.50;4.20;;;16.80;99.40;;;;;;5007266;28;20521;-68
2021/07/29 05:26:22;;;;;;;10.03;3.43;;;16.90;99.60;;;;;;5008411;28;20541;-67
2021/07/29 05:28:57;;;;;;;5.13;3.77;;;17.00;99.70;;;;;;4990666;28;20562;-67
2021/07/29 05:31:29;;;;;;;3.90;2.90;;;17.10;99.50;;;;;;5073774;28;20434;-67
2021/07/29 05:34:02;;;;;;;3.07;2.43;;;17.30;98.60;;;;;;5021538;28;20442;-70
2021/07/29 05:36:30;;;;;;;6.43;3.03;;;17.30;98.40;;;;;;5070223;28;20426;-67
2021/07/29 05:39:03;;;;;;;4.40;2.73;;;17.40;98.70;;;;;;5015928;28;20439;-67
2021/07/29 05:41:30;;;;;;;4.03;2.67;;;17.50;98.40;;;;;;5083927;28;20437;-67
2021/07/29 05:43:59;;;;;;;3.80;3.00;;;17.70;98.30;;;;;;5024930;28;20471;-67
2021/07/29 05:46:28;;;;;;;4.13;2.83;;;17.80;97.90;;;;;;4994483;28;20933;-68
2021/07/29 05:52:19;;;;;;;4.07;3.10;;;18.00;97.10;;;;;;5006041;28;20849;-75
2021/07/29 05:54:46;;;;;;;5.43;3.00;;;18.10;96.80;;;;;;5054122;28;20462;-68
2021/07/29 05:57:14;;;;;;;4.03;3.40;;;18.20;96.80;;;;;;5006622;28;20851;-67
2021/07/29 05:59:43;;;;;;;4.73;3.40;;;18.40;96.70;;;;;;5006137;28;20457;-67
2021/07/29 06:02:10;;;;;;;4.43;2.50;;;18.50;96.60;;;;;;4989450;28;20786;-71
2021/07/29 06:04:55;;;;;;;5.70;4.17;;;18.60;96.60;;;;;;4989003;28;20471;-67
2021/07/29 06:07:29;;;;;;;3.93;3.03;;;18.80;96.20;;;;;;4989078;28;20953;-69
2021/07/29 06:10:14;;;;;;;4.23;2.70;;;18.90;96.50;;;;;;5005700;28;20973;-67
2021/07/29 06:12:41;;;;;;;5.93;3.27;;;19.00;96.00;;;;;;5011841;28;20440;-67
2021/07/29 06:15:11;;;;;;;5.87;3.60;;;19.10;96.30;;;;;;4992789;28;20435;-67
2021/07/29 06:17:39;;;;;;;4.63;3.53;;;19.10;96.50;;;;;;4991036;28;20451;-68
2021/07/29 06:20:08;;;;;;;4.53;2.27;;;19.20;96.30;;;;;;5005799;28;20443;-67
2021/07/29 06:22:36;;;;;;;3.10;2.23;;;19.40;96.00;;;;;;5006790;28;20479;-68
2021/07/29 06:25:07;;;;;;;4.80;2.67;;;19.40;95.50;;;;;;4991634;28;20440;-67
2021/07/29 06:27:36;;;;;;;3.40;2.10;;;19.50;95.20;;;;;;5011141;28;20441;-69
2021/07/29 06:30:03;;;;;;;3.97;2.50;;;19.50;95.20;;;;;;5009278;28;20831;-68
2021/07/29 06:32:32;;;;;;;2.63;1.77;;;19.50;95.30;;;;;;5012414;28;20435;-67
2021/07/29 06:35:01;;;;;;;3.03;2.20;;;19.60;95.40;;;;;;5012308;28;20435;-68
2021/07/29 06:37:28;;;;;;;4.33;2.33;;;19.70;95.50;;;;;;5019182;28;20435;-68
2021/07/29 06:39:55;;;;;;;3.47;2.57;;;19.80;95.40;;;;;;5096080;28;20525;-68
2021/07/29 06:42:24;;;;;;;3.30;2.20;;;19.80;94.00;;;;;;5095741;28;20438;-67
2021/07/29 06:44:51;;;;;;;4.23;2.97;;;19.90;94.10;;;;;;5096199;28;20522;-67
2021/07/29 06:47:20;;;;;;;3.07;2.27;;;19.90;94.40;;;;;;5096526;28;20438;-68
2021/07/29 06:49:49;;;;;;;4.67;2.30;;;19.90;94.30;;;;;;5096142;28;20443;-68
2021/07/29 06:52:16;;;;;;;3.27;2.37;;;20.00;94.40;;;;;;5096420;28;20522;-68
2021/07/29 06:54:43;;;;;;;5.50;3.10;;;20.10;94.40;;;;;;5095917;28;20443;-68
2021/07/29 06:57:10;;;;;;;4.53;3.37;;;20.20;93.60;;;;;;5095939;28;21019;-68
2021/07/29 06:59:37;;;;;;;4.70;2.63;;;20.20;94.20;;;;;;5095945;28;20486;-69
2021/07/29 07:02:14;;;;;;;6.73;3.10;;;20.40;94.20;;;;;;5095775;28;20435;-67
2021/07/29 07:04:46;;;;;;;6.17;2.70;;;20.40;93.70;;;;;;5095718;28;20478;-67
2021/07/29 07:07:16;;;;;;;4.83;3.03;;;20.50;93.50;;;;;;5096223;28;20474;-67
2021/07/29 07:09:44;;;;;;;10.10;3.30;;;20.70;93.60;;;;;;5095758;28;20910;-67
2021/07/29 07:12:11;;;;;;;7.67;3.10;;;20.80;93.80;;;;;;5095739;28;20451;-67
2021/07/29 07:14:38;;;;;;;4.23;3.53;;;21.00;93.50;;;;;;5095690;28;20515;-67
2021/07/29 07:17:10;;;;;;;4.20;3.40;;;21.20;93.60;;;;;;5095822;28;20553;-68
2021/07/29 07:19:37;;;;;;;4.33;2.70;;;21.50;93.50;;;;;;5095787;28;20443;-69
2021/07/29 07:22:06;;;;;;;5.47;3.07;;;21.70;93.00;;;;;;5095771;28;20962;-67
2021/07/29 07:24:36;;;;;;;4.60;3.10;;;21.90;91.90;;;;;;5095659;28;20573;-68
2021/07/29 07:27:05;;;;;;;4.77;3.00;;;22.10;91.50;;;;;;5095371;28;20431;-68
2021/07/29 07:29:33;;;;;;;6.20;3.07;;;22.30;91.40;;;;;;5095229;28;20471;-68
2021/07/29 07:32:01;;;;;;;4.20;3.00;;;22.50;90.20;;;;;;5095545;28;20486;-69
2021/07/29 07:34:28;;;;;;;4.50;3.50;;;22.60;91.00;;;;;;5095524;28;20526;-68
2021/07/29 07:36:56;;;;;;;5.40;3.70;;;22.80;87.70;;;;;;5094614;28;20458;-69
2021/07/29 07:39:23;;;;;;;4.90;3.00;;;22.90;89.70;;;;;;5095676;28;20518;-68
2021/07/29 07:41:56;;;;;;;4.13;3.10;;;23.10;90.30;;;;;;5095524;28;20467;-67
2021/07/29 07:44:23;;;;;;;6.07;3.80;;;23.30;90.10;;;;;;5095398;28;20528;-68
2021/07/29 07:46:51;;;;;;;7.60;3.77;;;23.50;84.50;;;;;;5095478;28;20437;-69
2021/07/29 07:49:18;;;;;;;5.67;4.50;;;23.50;84.70;;;;;;5094973;28;20439;-69
2021/07/29 07:51:50;;;;;;;4.10;2.90;;;23.60;84.90;;;;;;5095338;28;20492;-69
2021/07/29 07:54:17;;;;;;;6.33;2.90;;;23.80;86.90;;;;;;5095455;28;20924;-68
2021/07/29 07:56:44;;;;;;;5.23;3.83;;;24.10;87.50;;;;;;5095049;28;20443;-68
2021/07/29 07:59:15;;;;;;;3.70;3.10;;;24.20;84.40;;;;;;5095017;28;20519;-67
2021/07/29 08:01:44;;;;;;;4.50;3.60;;;24.40;86.90;;;;;;5095200;28;20461;-67
2021/07/29 08:04:12;;;;;;;4.80;2.97;;;24.70;86.80;;;;;;5094553;28;20482;-67
2021/07/29 08:06:42;;;;;;;3.97;3.33;;;25.00;85.80;;;;;;5094584;28;20487;-67
2021/07/29 08:09:09;;;;;;;4.53;3.60;;;25.20;84.90;;;;;;5094386;28;20463;-68
2021/07/29 08:11:43;;;;;;;4.20;3.57;;;25.40;84.10;;;;;;5094316;28;20971;-67
2021/07/29 08:14:10;;;;;;;5.37;3.40;;;25.70;82.20;;;;;;5094071;28;20520;-68
2021/07/29 08:16:39;;;;;;;7.70;3.77;;;25.90;81.60;;;;;;5094434;28;20522;-68
2021/07/29 08:19:06;;;;;;;7.80;4.67;;;26.10;79.20;;;;;;5094276;28;20932;-68
2021/07/29 08:21:37;;;;;;;4.50;3.07;;;26.30;77.70;;;;;;5094120;28;20984;-68
2021/07/29 08:24:05;;;;;;;3.57;2.60;;;26.40;78.20;;;;;;5094211;28;20632;-68
2021/07/29 08:26:32;;;;;;;3.97;3.13;;;26.60;73.90;;;;;;5094261;28;20471;-68
2021/07/29 08:29:04;;;;;;;3.73;3.40;;;26.80;71.70;;;;;;5094068;28;20497;-68
2021/07/29 08:31:31;;;;;;;4.27;2.80;;;26.80;63.80;;;;;;5094331;28;20537;-67
2021/07/29 08:33:59;;;;;;;6.10;3.70;;;26.80;64.70;;;;;;5094040;28;20470;-68
2021/07/29 08:36:26;;;;;;;4.30;2.97;;;26.70;65.30;;;;;;5093950;28;20475;-68
2021/07/29 08:38:53;;;;;;;4.00;3.10;;;26.70;66.40;;;;;;5094026;28;20826;-68
2021/07/29 08:41:22;;;;;;;4.30;3.60;;;26.60;62.80;;;;;;5094049;28;20474;-68
2021/07/29 08:43:51;;;;;;;3.73;2.73;;;26.50;65.50;;;;;;5093727;28;20570;-68
2021/07/29 08:46:21;;;;;;;3.93;3.10;;;26.50;65.80;;;;;;5094124;28;20440;-69
2021/07/29 08:48:49;;;;;;;7.03;4.10;;;26.50;66.20;;;;;;5093389;28;20481;-68
2021/07/29 08:51:22;;;;;;;5.10;3.30;;;26.40;64.90;;;;;;5093752;28;20431;-68
2021/07/29 08:53:49;;;;;;;4.80;3.20;;;26.30;64.80;;;;;;5093928;28;20439;-68
2021/07/29 08:56:18;;;;;;;3.60;2.77;;;26.30;67.20;;;;;;5093718;28;21054;-68
2021/07/29 08:58:52;;;;;;;4.07;2.80;;;26.20;63.70;;;;;;5093759;28;20435;-69
2021/07/29 09:01:19;;;;;;;3.20;2.70;;;26.20;64.60;;;;;;5093754;28;20524;-68
2021/07/29 09:03:52;;;;;;;4.10;3.20;;;26.30;65.90;;;;;;5093397;28;20490;-68
2021/07/29 09:06:23;;;;;;;4.80;2.47;;;26.40;63.20;;;;;;5093517;28;20537;-69
2021/07/29 09:08:51;;;;;;;5.33;3.00;;;26.50;65.20;;;;;;5093411;28;20526;-70
2021/07/29 09:11:36;;;;;;;4.60;3.13;;;26.50;65.00;;;;;;5093372;28;20538;-70
2021/07/29 09:14:10;;;;;;;4.30;3.17;;;26.70;66.40;;;;;;5093422;28;20447;-67
2021/07/29 09:16:54;;;;;;;4.73;3.23;;;26.90;65.50;;;;;;5093395;28;20438;-67
2021/07/29 09:19:34;;;;;;;6.50;3.63;;;27.20;63.40;;;;;;5093709;28;20438;-68
2021/07/29 09:22:14;;;;;;;4.30;3.20;;;27.40;63.20;;;;;;5093400;28;20936;-68
2021/07/29 09:25:02;;;;;;;4.67;3.80;;;27.60;59.70;;;;;;5093240;28;20566;-69
2021/07/29 09:27:42;;;;;;;5.67;3.03;;;27.80;61.70;;;;;;5093277;28;20465;-68
2021/07/29 09:30:14;;;;;;;4.00;3.00;;;27.90;57.30;;;;;;5092992;28;21059;-67
2021/07/29 09:33:00;;;;;;;4.57;3.53;;;28.10;60.30;;;;;;5093235;28;20535;-68
2021/07/29 09:35:41;;;;;;;5.43;3.33;;;28.20;59.10;;;;;;5093169;28;20537;-68
2021/07/29 09:38:19;;;;;;;3.70;3.03;;;28.20;59.30;;;;;;5093044;28;20444;-67
2021/07/29 09:40:49;;;;;;;4.90;3.47;;;28.30;58.20;;;;;;5093002;28;20772;-69
2021/07/29 09:43:19;;;;;;;4.80;3.40;;;28.40;56.20;;;;;;5092899;28;20527;-68
2021/07/29 09:45:47;;;;;;;3.50;2.90;;;28.50;57.00;;;;;;5093047;28;20427;-68
2021/07/29 09:48:21;;;;;;;5.13;4.03;;;28.50;56.60;;;;;;5093004;28;20470;-69
2021/07/29 09:50:55;;;;;;;6.50;3.37;;;28.60;56.30;;;;;;5093174;28;20437;-68
2021/07/29 09:53:24;;;;;;;4.20;3.80;;;28.70;56.50;;;;;;5092981;28;20537;-67
2021/07/29 09:55:51;;;;;;;6.03;3.30;;;28.80;55.90;;;;;;5092759;28;20457;-72
2021/07/29 09:58:18;;;;;;;5.73;3.40;;;28.80;55.60;;;;;;5092620;28;20838;-69
2021/07/29 10:00:45;;;;;;;5.13;3.60;;;28.90;55.00;;;;;;5094943;28;20514;-69
2021/07/29 10:03:14;;;;;;;4.47;3.93;;;28.90;54.40;;;;;;5097285;28;20470;-68
2021/07/29 10:05:53;;;;;;;6.17;3.50;;;29.00;56.30;;;;;;5097266;28;20514;-68
2021/07/29 10:08:29;;;;;;;4.10;3.37;;;29.10;55.00;;;;;;5097049;28;20434;-69
2021/07/29 10:10:56;;;;;;;5.77;3.70;;;29.20;56.00;;;;;;5097292;28;20867;-68
2021/07/29 10:13:33;;;;;;;4.40;2.90;;;29.40;55.00;;;;;;5071506;28;20484;-70
2021/07/29 10:16:03;;;;;;;6.60;4.00;;;29.50;53.50;;;;;;5008269;28;20470;-68
2021/07/29 10:19:05;;;;;;;6.20;4.70;;;29.70;54.50;;;;;;5013114;28;20450;-69
2021/07/29 10:21:40;;;;;;;4.43;3.67;;;29.80;52.90;;;;;;5005637;28;20449;-70
2021/07/29 10:24:10;;;;;;;3.90;3.37;;;30.00;51.70;;;;;;5008397;28;21035;-68
2021/07/29 10:27:08;;;;;;;5.80;3.80;;;30.00;50.80;;;;;;5009998;28;20447;-68
2021/07/29 10:29:35;;;;;;;3.97;3.30;;;30.00;52.70;;;;;;5015242;28;20485;-68
2021/07/29 10:32:09;;;;;;;5.60;3.43;;;30.10;51.80;;;;;;5012945;28;20521;-68
2021/07/29 10:34:36;;;;;;;5.23;3.50;;;30.20;51.20;;;;;;5013247;28;20434;-68
2021/07/29 10:37:04;;;;;;;4.90;3.50;;;30.30;49.50;;;;;;5012825;28;20529;-69
2021/07/29 10:39:54;;;;;;;4.20;3.20;;;30.40;52.30;;;;;;5013218;28;20479;-68
2021/07/29 10:42:25;;;;;;;4.17;3.43;;;30.50;50.70;;;;;;5012708;28;20524;-68
2021/07/29 10:44:53;;;;;;;4.23;3.60;;;30.60;51.60;;;;;;5012577;28;20487;-68
2021/07/29 10:47:38;;;;;;;4.63;3.90;;;30.70;52.00;;;;;;5012642;28;20799;-68
2021/07/29 10:50:10;;;;;;;5.13;3.83;;;30.90;50.40;;;;;;5011281;28;20480;-68
2021/07/29 10:52:39;;;;;;;5.00;3.93;;;31.20;49.20;;;;;;5012300;28;20443;-68
2021/07/29 10:55:10;;;;;;;4.00;3.47;;;31.40;48.30;;;;;;5011389;28;20431;-69
2021/07/29 10:57:38;;;;;;;4.80;3.60;;;31.40;46.80;;;;;;5012330;28;20441;-68
2021/07/29 11:00:06;;;;;;;7.37;4.30;;;31.50;46.60;;;;;;5006094;28;20830;-68
2021/07/29 11:02:47;;;;;;;9.50;3.57;;;31.70;48.10;;;;;;5005647;28;20441;-69
2021/07/29 11:05:22;;;;;;;5.07;3.50;;;31.70;48.40;;;;;;5005592;28;20561;-69
2021/07/29 11:07:50;;;;;;;4.40;3.47;;;31.60;45.40;;;;;;4992341;28;20443;-69
2021/07/29 11:10:23;;;;;;;5.60;4.47;;;31.50;45.60;;;;;;4992503;28;20828;-71
2021/07/29 11:13:11;;;;;;;4.67;4.17;;;31.60;47.70;;;;;;4992032;28;20431;-75
2021/07/29 11:15:39;;;;;;;4.70;3.83;;;31.60;46.10;;;;;;5001707;28;20893;-68
2021/07/29 11:18:16;;;;;;;4.33;3.93;;;31.70;45.50;;;;;;5011604;28;20451;-68
2021/07/29 11:20:44;;;;;;;4.23;3.67;;;31.70;43.30;;;;;;4995568;28;20451;-68
2021/07/29 11:23:14;;;;;;;5.50;4.50;;;31.80;44.10;;;;;;5011981;28;20534;-68
2021/07/29 11:26:04;;;;;;;4.73;4.23;;;31.80;43.30;;;;;;5012034;28;20492;-68
2021/07/29 11:28:32;;;;;;;4.57;4.10;;;31.90;44.70;;;;;;5011707;28;20820;-68
2021/07/29 11:30:59;;;;;;;7.13;5.50;;;31.90;44.50;;;;;;5011839;28;20466;-68
2021/07/29 11:33:29;;;;;;;4.80;4.23;;;32.00;43.10;;;;;;5011770;28;20845;-68
2021/07/29 11:35:57;;;;;;;5.47;4.30;;;32.10;44.30;;;;;;5011774;28;21057;-68
2021/07/29 11:38:28;;;;;;;4.80;4.33;;;32.20;44.90;;;;;;5011743;28;20431;-68
2021/07/29 11:41:07;;;;;;;6.63;4.47;;;32.10;44.20;;;;;;5010439;28;20824;-70
2021/07/29 11:43:36;;;;;;;4.67;3.67;;;32.10;43.20;;;;;;5010831;28;20439;-68
2021/07/29 11:46:06;;;;;;;7.50;3.87;;;31.80;43.30;;;;;;5011306;28;20439;-68
2021/07/29 11:48:34;;;;;;;5.07;4.37;;;31.70;44.90;;;;;;5002643;28;20436;-68
2021/07/29 11:51:02;;;;;;;4.00;3.60;;;31.40;42.80;;;;;;4991793;28;20443;-68
2021/07/29 11:53:40;;;;;;;4.20;3.63;;;31.30;45.70;;;;;;4991816;28;20921;-68
2021/07/29 11:56:10;;;;;;;4.97;4.17;;;31.20;46.10;;;;;;4991734;28;20823;-68
2021/07/29 11:58:38;;;;;;;4.20;3.37;;;31.30;45.30;;;;;;4991731;28;20982;-68
2021/07/29 12:01:13;;;;;;;4.47;3.80;;;31.40;45.50;;;;;;5002923;28;20431;-68
2021/07/29 12:03:46;;;;;;;5.20;4.13;;;31.40;45.90;;;;;;5011439;28;20492;-68
2021/07/29 12:06:17;;;;;;;5.30;4.13;;;31.50;46.90;;;;;;5011930;28;20847;-68
2021/07/29 12:08:47;;;;;;;4.40;3.67;;;31.50;45.70;;;;;;5011036;28;20443;-68
2021/07/29 12:11:27;;;;;;;5.27;4.20;;;31.40;46.20;;;;;;5010487;28;20465;-68
2021/07/29 12:13:54;;;;;;;4.37;3.57;;;31.40;45.50;;;;;;5010467;28;20500;-68
2021/07/29 12:16:41;;;;;;;4.20;3.80;;;31.40;45.50;;;;;;5010317;28;20499;-68
2021/07/29 12:19:08;;;;;;;4.97;3.30;;;31.60;45.20;;;;;;5010939;28;20445;-68
2021/07/29 12:21:38;;;;;;;4.03;3.50;;;31.60;43.90;;;;;;5011586;28;20439;-68
2021/07/29 12:24:06;;;;;;;7.63;4.13;;;31.70;43.50;;;;;;5010666;28;20834;-68
2021/07/29 12:26:35;;;;;;;4.20;3.70;;;31.70;43.70;;;;;;5010617;28;20435;-68
2021/07/29 12:29:02;;;;;;;4.77;3.70;;;31.70;43.00;;;;;;5011028;28;20474;-68
2021/07/29 12:31:31;;;;;;;4.37;3.83;;;31.60;43.30;;;;;;5010296;28;20443;-67
2021/07/29 12:34:01;;;;;;;4.63;4.10;;;31.50;45.00;;;;;;5010547;28;20451;-68
2021/07/29 12:36:44;;;;;;;6.33;3.70;;;31.30;45.30;;;;;;5010391;28;20565;-68
2021/07/29 12:39:11;;;;;;;4.83;3.53;;;31.30;45.40;;;;;;4996194;28;20497;-68
2021/07/29 12:41:42;;;;;;;4.00;3.60;;;31.20;43.40;;;;;;5010842;28;20451;-68
2021/07/29 12:44:10;;;;;;;5.33;4.53;;;30.90;42.10;;;;;;5010662;28;20499;-68
2021/07/29 12:46:38;;;;;;;4.37;3.97;;;30.70;43.50;;;;;;5010544;28;20458;-68
2021/07/29 12:49:06;;;;;;;5.37;3.90;;;30.50;44.50;;;;;;5009595;28;20524;-68
2021/07/29 12:51:39;;;;;;;4.83;4.00;;;30.40;44.30;;;;;;5010604;28;20871;-68
2021/07/29 12:54:09;;;;;;;4.40;3.90;;;30.20;43.60;;;;;;5010140;28;20474;-68
2021/07/29 12:56:37;;;;;;;4.07;3.40;;;30.10;44.50;;;;;;5010016;28;20567;-69
2021/07/29 12:59:07;;;;;;;5.60;3.80;;;30.10;46.00;;;;;;5009843;28;20481;-68
2021/07/29 13:01:34;;;;;;;4.20;3.80;;;30.00;44.90;;;;;;5009876;28;20521;-68
2021/07/29 13:04:04;;;;;;;4.70;4.20;;;29.80;46.00;;;;;;5011168;28;20438;-68
2021/07/29 13:06:32;;;;;;;4.90;4.37;;;29.70;46.50;;;;;;5011076;28;20525;-68
2021/07/29 13:09:03;;;;;;;7.17;3.27;;;29.60;45.90;;;;;;5011072;28;20486;-68